createdAt,value
2017-08-10T00:00:55.376Z,59.69
2017-08-10T00:01:55.409Z,59.49
2017-08-10T00:02:55.121Z,59.39
2017-08-10T00:03:55.170Z,58.81
2017-08-10T00:04:55.179Z,59.03
2017-08-10T00:05:55.515Z,59.13
2017-08-10T00:06:55.544Z,59.3
2017-08-10T00:07:55.573Z,59
2017-08-10T00:08:55.622Z,59.1
2017-08-10T00:09:55.631Z,59.2
2017-08-10T00:10:55.655Z,59.2
2017-08-10T00:11:55.376Z,59.3
2017-08-10T00:12:55.725Z,59.39
2017-08-10T00:13:55.739Z,59.39
2017-08-10T00:14:55.767Z,59.1
2017-08-10T00:15:55.488Z,58.81
2017-08-10T00:16:55.517Z,58.81
2017-08-10T00:17:55.859Z,59.03
2017-08-10T00:18:55.886Z,59.2
2017-08-10T00:19:55.918Z,58.91
2017-08-10T00:20:55.943Z,59.2
2017-08-10T00:21:55.968Z,59.23
2017-08-10T00:22:55.997Z,59.2
2017-08-10T00:23:55.714Z,59.1
2017-08-10T00:24:55.742Z,58.91
2017-08-10T00:25:56.083Z,59
2017-08-10T00:26:56.112Z,59.13
2017-08-10T00:27:56.146Z,59.39
2017-08-10T00:28:56.169Z,59.1
2017-08-10T00:29:55.899Z,58.81
2017-08-10T00:30:56.218Z,58.62
2017-08-10T00:31:56.249Z,58.72
2017-08-10T00:32:56.578Z,58.23
2017-08-10T00:33:56.309Z,58.33
2017-08-10T00:34:56.371Z,58.23
2017-08-10T00:35:56.369Z,58.33
2017-08-10T00:36:56.397Z,58.23
2017-08-10T00:37:56.660Z,58.52
2017-08-10T00:38:56.137Z,58.04
2017-08-10T00:39:56.163Z,57.84
2017-08-10T00:40:56.191Z,57.75
2017-08-10T00:41:56.548Z,58.23
2017-08-10T00:42:56.813Z,57.94
2017-08-10T00:43:56.282Z,58.14
2017-08-10T00:44:56.309Z,57.75
2017-08-10T00:45:56.648Z,58.04
2017-08-10T00:46:56.365Z,57.26
2017-08-10T00:47:56.972Z,57.75
2017-08-10T00:48:56.737Z,57.45
2017-08-10T00:49:56.764Z,57.17
2017-08-10T00:50:56.792Z,57.26
2017-08-10T00:51:56.819Z,57.17
2017-08-10T00:52:56.832Z,56.97
2017-08-10T00:53:56.882Z,56.87
2017-08-10T00:54:56.587Z,57.45
2017-08-10T00:55:56.934Z,56.77
2017-08-10T00:56:56.648Z,56.87
2017-08-10T00:57:57.282Z,56.49
2017-08-10T00:58:57.017Z,56.77
2017-08-10T00:59:56.739Z,56.59
2017-08-10T01:00:56.760Z,56.49
2017-08-10T01:01:56.789Z,56
2017-08-10T01:02:56.822Z,56.1
2017-08-10T01:03:57.162Z,56.1
2017-08-10T01:04:57.180Z,55.81
2017-08-10T01:05:57.225Z,55.9
2017-08-10T01:06:57.240Z,55.71
2017-08-10T01:07:56.957Z,56.1
2017-08-10T01:08:57.290Z,55.9
2017-08-10T01:09:57.325Z,55.62
2017-08-10T01:10:57.356Z,56.07
2017-08-10T01:11:57.076Z,55.4
2017-08-10T01:12:57.093Z,55.98
2017-08-10T01:13:57.117Z,55.52
2017-08-10T01:14:57.471Z,55.52
2017-08-10T01:15:57.495Z,55.81
2017-08-10T01:16:57.204Z,55.32
2017-08-10T01:17:57.552Z,55.71
2017-08-10T01:18:57.266Z,55.52
2017-08-10T01:19:57.607Z,55.49
2017-08-10T01:20:57.632Z,55.68
2017-08-10T01:21:57.356Z,55.3
2017-08-10T01:22:57.694Z,55.1
2017-08-10T01:23:57.724Z,55.32
2017-08-10T01:24:57.436Z,55.42
2017-08-10T01:25:57.777Z,55.04
2017-08-10T01:26:57.805Z,55
2017-08-10T01:27:57.522Z,55.1
2017-08-10T01:28:57.551Z,55.1
2017-08-10T01:29:57.577Z,55.4
2017-08-10T01:30:57.915Z,55.3
2017-08-10T01:31:57.949Z,55.78
2017-08-10T01:32:57.977Z,55.88
2017-08-10T01:33:58.030Z,55.58
2017-08-10T01:34:57.719Z,55.1
2017-08-10T01:35:58.059Z,55.58
2017-08-10T01:36:58.085Z,55.68
2017-08-10T01:37:58.108Z,55.68
2017-08-10T01:38:57.826Z,55.58
2017-08-10T01:39:58.167Z,55.4
2017-08-10T01:40:58.204Z,55.4
2017-08-10T01:41:58.226Z,55
2017-08-10T01:42:57.945Z,55.2
2017-08-10T01:43:58.270Z,55.3
2017-08-10T01:44:58.314Z,55.2
2017-08-10T01:45:58.027Z,55.3
2017-08-10T01:46:58.057Z,55.1
2017-08-10T01:47:58.394Z,55.58
2017-08-10T01:48:58.730Z,55.1
2017-08-10T01:49:58.455Z,55.49
2017-08-10T01:50:58.479Z,55.4
2017-08-10T01:51:58.197Z,55.2
2017-08-10T01:52:58.533Z,55.78
2017-08-10T01:53:58.854Z,55.68
2017-08-10T01:54:58.279Z,55.49
2017-08-10T01:55:58.619Z,56.16
2017-08-10T01:56:58.336Z,55.68
2017-08-10T01:57:58.673Z,55.88
2017-08-10T01:58:59.002Z,55.68
2017-08-10T01:59:58.730Z,55.78
2017-08-10T02:00:58.444Z,55.4
2017-08-10T02:01:58.786Z,55.3
2017-08-10T02:02:58.504Z,55.3
2017-08-10T02:03:58.830Z,55.4
2017-08-10T02:04:58.873Z,55.1
2017-08-10T02:05:58.905Z,55.2
2017-08-10T02:06:58.929Z,55.3
2017-08-10T02:07:58.950Z,55.3
2017-08-10T02:08:59.242Z,55.4
2017-08-10T02:09:58.699Z,55.2
2017-08-10T02:10:59.040Z,55
2017-08-10T02:11:58.755Z,55.1
2017-08-10T02:12:59.098Z,55.3
2017-08-10T02:13:59.126Z,55.2
2017-08-10T02:14:59.151Z,55.1
2017-08-10T02:15:59.180Z,55.68
2017-08-10T02:16:58.895Z,55.3
2017-08-10T02:17:58.929Z,55.4
2017-08-10T02:18:59.267Z,55.4
2017-08-10T02:19:58.981Z,55.78
2017-08-10T02:20:59.323Z,55.68
2017-08-10T02:21:59.038Z,55.4
2017-08-10T02:22:59.377Z,55.49
2017-08-10T02:23:59.094Z,55.49
2017-08-10T02:24:59.434Z,55.68
2017-08-10T02:25:59.148Z,55.1
2017-08-10T02:26:59.484Z,55.58
2017-08-10T02:27:59.517Z,55.2
2017-08-10T02:28:59.230Z,55.58
2017-08-10T02:29:59.259Z,55.58
2017-08-10T02:30:59.597Z,55.4
2017-08-10T02:31:59.632Z,55.4
2017-08-10T02:32:59.665Z,55
2017-08-10T02:33:59.366Z,55.49
2017-08-10T02:34:59.739Z,55.49
2017-08-10T02:35:59.737Z,55.4
2017-08-10T02:36:59.764Z,55.3
2017-08-10T02:37:59.802Z,55.4
2017-08-10T02:38:59.514Z,55.3
2017-08-10T02:39:59.851Z,55.68
2017-08-10T02:40:59.571Z,55.58
2017-08-10T02:41:59.593Z,55.68
2017-08-10T02:42:59.940Z,55.3
2017-08-10T02:43:59.973Z,55.68
2017-08-10T02:44:59.991Z,55.68
2017-08-10T02:46:00.023Z,55.58
2017-08-10T02:46:59.736Z,55.78
2017-08-10T02:48:00.074Z,55.68
2017-08-10T02:48:59.794Z,55.68
2017-08-10T02:50:00.131Z,55.4
2017-08-10T02:51:00.160Z,55.4
2017-08-10T02:51:59.882Z,55.49
2017-08-10T02:53:00.214Z,55.78
2017-08-10T02:54:00.246Z,55.78
2017-08-10T02:55:00.271Z,55.68
2017-08-10T02:56:00.299Z,55.78
2017-08-10T02:57:00.329Z,55.58
2017-08-10T02:58:00.039Z,55.88
2017-08-10T02:59:00.375Z,55.78
2017-08-10T03:00:00.405Z,55.78
2017-08-10T03:01:00.440Z,55.88
2017-08-10T03:02:00.463Z,55.88
2017-08-10T03:03:00.493Z,55.49
2017-08-10T03:04:00.522Z,55.98
2017-08-10T03:05:00.550Z,55.66
2017-08-10T03:06:00.575Z,55.49
2017-08-10T03:07:00.600Z,55.68
2017-08-10T03:08:00.634Z,55.49
2017-08-10T03:09:00.661Z,55.78
2017-08-10T03:10:00.683Z,55.3
2017-08-10T03:11:00.717Z,55.46
2017-08-10T03:12:00.739Z,55.68
2017-08-10T03:13:00.458Z,55.66
2017-08-10T03:14:00.499Z,55.78
2017-08-10T03:15:01.129Z,55.1
2017-08-10T03:16:00.539Z,55.1
2017-08-10T03:17:00.575Z,55
2017-08-10T03:18:00.913Z,55.2
2017-08-10T03:19:00.630Z,55.3
2017-08-10T03:20:01.271Z,55.1
2017-08-10T03:21:00.688Z,55.1
2017-08-10T03:22:01.024Z,55.36
2017-08-10T03:23:01.049Z,55.1
2017-08-10T03:24:00.766Z,55.2
2017-08-10T03:25:01.046Z,55.2
2017-08-10T03:26:01.136Z,55.3
2017-08-10T03:27:01.156Z,55.68
2017-08-10T03:28:01.194Z,55.3
2017-08-10T03:29:01.218Z,55
2017-08-10T03:30:01.236Z,55.3
2017-08-10T03:31:01.280Z,55.3
2017-08-10T03:32:00.992Z,55
2017-08-10T03:33:01.352Z,55.1
2017-08-10T03:34:01.358Z,55.49
2017-08-10T03:35:01.631Z,55.27
2017-08-10T03:36:01.104Z,54.91
2017-08-10T03:37:01.132Z,55
2017-08-10T03:38:01.473Z,55.1
2017-08-10T03:39:01.502Z,55.4
2017-08-10T03:40:01.462Z,55.88
2017-08-10T03:41:01.561Z,55.78
2017-08-10T03:42:01.584Z,55.85
2017-08-10T03:43:01.608Z,55
2017-08-10T03:44:01.638Z,55.4
2017-08-10T03:45:01.968Z,55.4
2017-08-10T03:46:01.691Z,55.17
2017-08-10T03:47:01.405Z,55.46
2017-08-10T03:48:01.757Z,56.07
2017-08-10T03:49:01.780Z,55.58
2017-08-10T03:50:02.057Z,55.4
2017-08-10T03:51:01.834Z,55.4
2017-08-10T03:52:01.865Z,55.27
2017-08-10T03:53:01.601Z,55.58
2017-08-10T03:54:01.925Z,54.98
2017-08-10T03:55:02.247Z,55.17
2017-08-10T03:56:01.980Z,55.49
2017-08-10T03:57:01.997Z,55.3
2017-08-10T03:58:01.718Z,55.17
2017-08-10T03:59:02.059Z,55.4
2017-08-10T04:00:02.091Z,55.27
2017-08-10T04:01:01.797Z,55.4
2017-08-10T04:02:02.137Z,55.4
2017-08-10T04:03:02.169Z,55.46
2017-08-10T04:04:01.880Z,55.1
2017-08-10T04:05:02.231Z,55.76
2017-08-10T04:06:02.251Z,55.56
2017-08-10T04:07:01.969Z,55.58
2017-08-10T04:08:02.305Z,55.68
2017-08-10T04:09:02.018Z,55.36
2017-08-10T04:10:02.045Z,55.49
2017-08-10T04:11:02.392Z,55.68
2017-08-10T04:12:02.417Z,55.3
2017-08-10T04:13:02.462Z,55.27
2017-08-10T04:14:02.163Z,55.36
2017-08-10T04:15:02.194Z,55.36
2017-08-10T04:16:02.543Z,55.36
2017-08-10T04:17:02.561Z,55.56
2017-08-10T04:18:02.273Z,55.58
2017-08-10T04:19:02.306Z,55.56
2017-08-10T04:20:02.642Z,55.56
2017-08-10T04:21:02.672Z,55.3
2017-08-10T04:22:02.385Z,55.27
2017-08-10T04:23:02.414Z,55.36
2017-08-10T04:24:02.758Z,55.4
2017-08-10T04:25:02.781Z,55.2
2017-08-10T04:26:02.808Z,55.27
2017-08-10T04:27:02.516Z,55.4
2017-08-10T04:28:02.576Z,55.07
2017-08-10T04:29:02.583Z,55.3
2017-08-10T04:30:02.606Z,55.17
2017-08-10T04:31:02.632Z,55.46
2017-08-10T04:32:02.982Z,55.07
2017-08-10T04:33:03.005Z,55.07
2017-08-10T04:34:03.029Z,55.36
2017-08-10T04:35:02.749Z,55.36
2017-08-10T04:36:02.771Z,55.17
2017-08-10T04:37:03.111Z,55.46
2017-08-10T04:38:02.825Z,55.46
2017-08-10T04:39:03.166Z,55.49
2017-08-10T04:40:03.199Z,55.46
2017-08-10T04:41:03.223Z,55.27
2017-08-10T04:42:02.941Z,55.27
2017-08-10T04:43:02.969Z,55.17
2017-08-10T04:44:03.313Z,55.76
2017-08-10T04:45:03.330Z,55.17
2017-08-10T04:46:03.355Z,55.66
2017-08-10T04:47:03.400Z,55.07
2017-08-10T04:48:03.426Z,55.56
2017-08-10T04:49:03.138Z,54.98
2017-08-10T04:50:03.477Z,55.46
2017-08-10T04:51:03.496Z,55.56
2017-08-10T04:52:03.537Z,55.36
2017-08-10T04:53:03.244Z,55.66
2017-08-10T04:54:03.578Z,55.56
2017-08-10T04:55:03.302Z,55.27
2017-08-10T04:56:03.340Z,55.56
2017-08-10T04:57:03.664Z,55.49
2017-08-10T04:58:03.697Z,55.58
2017-08-10T04:59:03.414Z,55.88
2017-08-10T05:00:03.759Z,55.3
2017-08-10T05:01:03.776Z,55.78
2017-08-10T05:02:03.496Z,55.4
2017-08-10T05:03:03.550Z,55.66
2017-08-10T05:04:03.866Z,55.76
2017-08-10T05:05:03.579Z,55.36
2017-08-10T05:06:03.905Z,55.17
2017-08-10T05:07:03.637Z,55.07
2017-08-10T05:08:03.979Z,55.36
2017-08-10T05:09:04.006Z,55.56
2017-08-10T05:10:04.030Z,55.76
2017-08-10T05:11:04.360Z,55.36
2017-08-10T05:12:03.787Z,55.49
2017-08-10T05:13:03.808Z,55.56
2017-08-10T05:14:03.838Z,55.56
2017-08-10T05:15:03.859Z,55.27
2017-08-10T05:16:04.504Z,55.46
2017-08-10T05:17:04.274Z,55.46
2017-08-10T05:18:04.258Z,55.46
2017-08-10T05:19:04.008Z,55.58
2017-08-10T05:20:03.999Z,55.2
2017-08-10T05:21:04.592Z,55.17
2017-08-10T05:22:04.368Z,55.4
2017-08-10T05:23:04.398Z,55.4
2017-08-10T05:24:04.422Z,55.3
2017-08-10T05:25:04.443Z,55.36
2017-08-10T05:26:04.776Z,55.2
2017-08-10T05:27:04.500Z,55.58
2017-08-10T05:28:04.222Z,55.76
2017-08-10T05:29:04.564Z,55.4
2017-08-10T05:30:04.592Z,55.17
2017-08-10T05:31:04.604Z,55.3
2017-08-10T05:32:04.641Z,55.56
2017-08-10T05:33:04.675Z,55.46
2017-08-10T05:34:04.702Z,55.46
2017-08-10T05:35:04.723Z,55.66
2017-08-10T05:36:05.048Z,55.58
2017-08-10T05:37:04.785Z,55.46
2017-08-10T05:38:04.502Z,55.68
2017-08-10T05:39:04.530Z,55.27
2017-08-10T05:40:04.862Z,55.58
2017-08-10T05:41:05.143Z,55.49
2017-08-10T05:42:04.917Z,55.58
2017-08-10T05:43:04.946Z,55
2017-08-10T05:44:04.978Z,55.2
2017-08-10T05:45:04.701Z,55.58
2017-08-10T05:46:04.723Z,55.4
2017-08-10T05:47:05.060Z,55.07
2017-08-10T05:48:04.773Z,55
2017-08-10T05:49:05.121Z,55.4
2017-08-10T05:50:04.834Z,55.2
2017-08-10T05:51:05.168Z,55.17
2017-08-10T05:52:04.887Z,55.1
2017-08-10T05:53:05.230Z,55.36
2017-08-10T05:54:05.259Z,55.27
2017-08-10T05:55:05.283Z,55.27
2017-08-10T05:56:05.307Z,55.17
2017-08-10T05:57:05.341Z,54.69
2017-08-10T05:58:05.369Z,55.36
2017-08-10T05:59:05.391Z,55.3
2017-08-10T06:00:05.440Z,55.17
2017-08-10T06:01:05.138Z,55.56
2017-08-10T06:02:05.481Z,55.56
2017-08-10T06:03:05.192Z,55.3
2017-08-10T06:04:05.531Z,55.2
2017-08-10T06:05:05.564Z,55.66
2017-08-10T06:06:05.597Z,55.66
2017-08-10T06:07:05.618Z,55.1
2017-08-10T06:08:05.646Z,55.49
2017-08-10T06:09:05.674Z,55.2
2017-08-10T06:10:05.707Z,55.1
2017-08-10T06:11:05.416Z,55.17
2017-08-10T06:12:05.445Z,55.17
2017-08-10T06:13:05.476Z,55.27
2017-08-10T06:14:05.817Z,54.98
2017-08-10T06:15:05.531Z,55.17
2017-08-10T06:16:05.555Z,55.27
2017-08-10T06:17:05.585Z,55.4
2017-08-10T06:18:05.930Z,55.27
2017-08-10T06:19:05.647Z,55.85
2017-08-10T06:20:05.985Z,55.58
2017-08-10T06:21:06.013Z,55.76
2017-08-10T06:22:06.041Z,55.49
2017-08-10T06:23:05.744Z,55.58
2017-08-10T06:24:05.779Z,55.07
2017-08-10T06:25:06.123Z,55.27
2017-08-10T06:26:06.151Z,55.36
2017-08-10T06:27:06.174Z,55.68
2017-08-10T06:28:06.203Z,55.36
2017-08-10T06:29:06.231Z,55.2
2017-08-10T06:30:06.255Z,55.3
2017-08-10T06:31:06.289Z,55.1
2017-08-10T06:32:06.322Z,55.07
2017-08-10T06:33:06.030Z,55.2
2017-08-10T06:34:06.062Z,55.17
2017-08-10T06:35:06.092Z,55.2
2017-08-10T06:36:06.424Z,55.1
2017-08-10T06:37:06.146Z,55.2
2017-08-10T06:38:06.171Z,55.2
2017-08-10T06:39:06.198Z,55
2017-08-10T06:40:06.226Z,55.2
2017-08-10T06:41:06.248Z,55.2
2017-08-10T06:42:06.592Z,55.2
2017-08-10T06:43:06.306Z,55.4
2017-08-10T06:44:06.651Z,55.17
2017-08-10T06:45:06.676Z,55.27
2017-08-10T06:46:06.700Z,55.4
2017-08-10T06:47:06.729Z,55.17
2017-08-10T06:48:06.451Z,55.36
2017-08-10T06:49:06.815Z,55.3
2017-08-10T06:50:06.511Z,55.17
2017-08-10T06:51:06.532Z,55.07
2017-08-10T06:52:06.561Z,55.17
2017-08-10T06:53:06.898Z,54.98
2017-08-10T06:54:06.925Z,55.27
2017-08-10T06:55:06.956Z,55.17
2017-08-10T06:56:06.981Z,55.27
2017-08-10T06:57:07.010Z,55.27
2017-08-10T06:58:07.034Z,55.27
2017-08-10T06:59:07.067Z,55.17
2017-08-10T07:00:06.779Z,55.07
2017-08-10T07:01:06.808Z,55.27
2017-08-10T07:02:06.837Z,55.07
2017-08-10T07:03:07.178Z,54.79
2017-08-10T07:04:06.896Z,54.79
2017-08-10T07:05:06.924Z,54.98
2017-08-10T07:06:06.949Z,54.69
2017-08-10T07:07:07.543Z,55.17
2017-08-10T07:08:07.010Z,55.27
2017-08-10T07:09:07.351Z,55.07
2017-08-10T07:10:07.368Z,54.79
2017-08-10T07:11:07.397Z,54.79
2017-08-10T07:12:07.758Z,55.27
2017-08-10T07:13:07.146Z,55.07
2017-08-10T07:14:07.484Z,54.88
2017-08-10T07:15:07.505Z,55.2
2017-08-10T07:16:07.541Z,55.36
2017-08-10T07:17:07.869Z,55.17
2017-08-10T07:18:07.286Z,55.4
2017-08-10T07:19:07.309Z,54.81
2017-08-10T07:20:07.722Z,54.91
2017-08-10T07:21:07.679Z,54.69
2017-08-10T07:22:07.956Z,55.07
2017-08-10T07:23:07.738Z,55.36
2017-08-10T07:24:07.447Z,55
2017-08-10T07:25:07.792Z,54.88
2017-08-10T07:26:07.821Z,55.07
2017-08-10T07:27:08.149Z,54.59
2017-08-10T07:28:07.873Z,54.91
2017-08-10T07:29:07.894Z,54.88
2017-08-10T07:30:07.932Z,55.17
2017-08-10T07:31:07.958Z,54.98
2017-08-10T07:32:07.984Z,54.59
2017-08-10T07:33:08.009Z,54.98
2017-08-10T07:34:07.727Z,55.07
2017-08-10T07:35:07.756Z,54.79
2017-08-10T07:36:08.095Z,55.07
2017-08-10T07:37:07.817Z,54.98
2017-08-10T07:38:07.839Z,54.79
2017-08-10T07:39:08.174Z,54.59
2017-08-10T07:40:07.892Z,54.69
2017-08-10T07:41:08.242Z,54.59
2017-08-10T07:42:07.948Z,54.49
2017-08-10T07:43:08.295Z,54.39
2017-08-10T07:44:08.321Z,55.17
2017-08-10T07:45:08.349Z,55.17
2017-08-10T07:46:08.377Z,54.88
2017-08-10T07:47:08.092Z,54.88
2017-08-10T07:48:08.432Z,54.88
2017-08-10T07:49:08.149Z,54.88
2017-08-10T07:50:08.528Z,54.98
2017-08-10T07:51:08.519Z,54.98
2017-08-10T07:52:08.546Z,54.88
2017-08-10T07:53:08.574Z,54.98
2017-08-10T07:54:08.286Z,54.88
2017-08-10T07:55:08.312Z,54.88
2017-08-10T07:56:08.656Z,55.36
2017-08-10T07:57:08.690Z,54.98
2017-08-10T07:58:08.707Z,54.98
2017-08-10T07:59:08.424Z,54.98
2017-08-10T08:00:08.760Z,54.88
2017-08-10T08:01:08.792Z,54.79
2017-08-10T08:02:08.818Z,55.17
2017-08-10T08:03:08.845Z,55.36
2017-08-10T08:04:08.875Z,55.36
2017-08-10T08:05:08.902Z,55.36
2017-08-10T08:06:08.931Z,55.17
2017-08-10T08:07:08.650Z,55.27
2017-08-10T08:08:08.995Z,54.88
2017-08-10T08:09:08.711Z,54.98
2017-08-10T08:10:09.040Z,54.98
2017-08-10T08:11:08.761Z,55.17
2017-08-10T08:12:08.786Z,55.36
2017-08-10T08:13:08.811Z,55.36
2017-08-10T08:14:09.152Z,55.36
2017-08-10T08:15:09.171Z,55.17
2017-08-10T08:16:09.210Z,55.17
2017-08-10T08:17:09.237Z,55.17
2017-08-10T08:18:09.262Z,55.36
2017-08-10T08:19:08.980Z,55.66
2017-08-10T08:20:09.325Z,55.46
2017-08-10T08:21:09.037Z,55.17
2017-08-10T08:22:09.373Z,55.66
2017-08-10T08:23:09.402Z,55.36
2017-08-10T08:24:09.120Z,55.56
2017-08-10T08:25:09.452Z,55.66
2017-08-10T08:26:09.486Z,55.36
2017-08-10T08:27:09.518Z,55.27
2017-08-10T08:28:09.543Z,55.56
2017-08-10T08:29:09.575Z,55.56
2017-08-10T08:30:09.280Z,55.56
2017-08-10T08:31:09.313Z,55.56
2017-08-10T08:32:09.654Z,55.56
2017-08-10T08:33:09.366Z,55.07
2017-08-10T08:34:09.395Z,55.17
2017-08-10T08:35:09.425Z,55.66
2017-08-10T08:36:09.453Z,55.76
2017-08-10T08:37:09.794Z,55.46
2017-08-10T08:38:09.818Z,55.56
2017-08-10T08:39:09.848Z,55.56
2017-08-10T08:40:09.876Z,55.66
2017-08-10T08:41:09.905Z,55.27
2017-08-10T08:42:09.622Z,55.27
2017-08-10T08:43:10.212Z,55.66
2017-08-10T08:44:09.988Z,55.56
2017-08-10T08:45:10.025Z,55.27
2017-08-10T08:46:09.758Z,55.27
2017-08-10T08:47:09.756Z,55.36
2017-08-10T08:48:10.351Z,55.76
2017-08-10T08:49:10.127Z,55.76
2017-08-10T08:50:10.152Z,55.56
2017-08-10T08:51:10.182Z,55.56
2017-08-10T08:52:09.898Z,55.56
2017-08-10T08:53:10.178Z,55.36
2017-08-10T08:54:10.271Z,55.27
2017-08-10T08:55:10.291Z,55.46
2017-08-10T08:56:10.009Z,55.36
2017-08-10T08:57:10.349Z,55.07
2017-08-10T08:58:10.683Z,55.66
2017-08-10T08:59:10.406Z,55.66
2017-08-10T09:00:10.137Z,55.36
2017-08-10T09:01:10.460Z,55.07
2017-08-10T09:02:10.489Z,55.46
2017-08-10T09:03:12.318Z,55.66
2017-08-10T09:04:10.543Z,55.36
2017-08-10T09:05:10.576Z,55.36
2017-08-10T09:06:10.601Z,55.76
2017-08-10T09:07:10.314Z,55.36
2017-08-10T09:08:10.342Z,55.56
2017-08-10T09:09:10.374Z,55.17
2017-08-10T09:10:10.711Z,55.56
2017-08-10T09:11:10.436Z,55.27
2017-08-10T09:12:10.452Z,55.36
2017-08-10T09:13:10.792Z,55.76
2017-08-10T09:14:10.510Z,55.27
2017-08-10T09:15:10.539Z,55.85
2017-08-10T09:16:10.879Z,55.46
2017-08-10T09:17:10.594Z,55.85
2017-08-10T09:18:10.638Z,55.66
2017-08-10T09:19:10.678Z,55.36
2017-08-10T09:20:10.988Z,55.36
2017-08-10T09:21:11.027Z,55.36
2017-08-10T09:22:11.042Z,55.76
2017-08-10T09:23:10.761Z,55.36
2017-08-10T09:24:11.102Z,55.66
2017-08-10T09:25:11.135Z,55.66
2017-08-10T09:26:11.156Z,55.76
2017-08-10T09:27:11.193Z,55.36
2017-08-10T09:28:11.207Z,55.53
2017-08-10T09:29:11.245Z,55.36
2017-08-10T09:30:10.955Z,55.07
2017-08-10T09:31:11.292Z,55.94
2017-08-10T09:32:11.320Z,56.04
2017-08-10T09:33:11.061Z,56.02
2017-08-10T09:34:11.683Z,56.04
2017-08-10T09:35:11.404Z,55.63
2017-08-10T09:36:11.121Z,55.82
2017-08-10T09:37:11.145Z,56.04
2017-08-10T09:38:11.482Z,56.02
2017-08-10T09:39:11.822Z,55.92
2017-08-10T09:40:11.232Z,55.82
2017-08-10T09:41:11.257Z,55.92
2017-08-10T09:42:11.292Z,56.21
2017-08-10T09:43:11.628Z,56.02
2017-08-10T09:44:11.585Z,55.82
2017-08-10T09:45:11.680Z,55.73
2017-08-10T09:46:11.707Z,55.92
2017-08-10T09:47:11.451Z,55.73
2017-08-10T09:48:11.762Z,55.53
2017-08-10T09:49:12.077Z,55.92
2017-08-10T09:50:11.819Z,55.43
2017-08-10T09:51:11.848Z,55.56
2017-08-10T09:52:11.877Z,55.46
2017-08-10T09:53:11.919Z,55.43
2017-08-10T09:54:12.231Z,55.66
2017-08-10T09:55:11.640Z,56.02
2017-08-10T09:56:11.671Z,55.82
2017-08-10T09:57:12.014Z,55.43
2017-08-10T09:58:11.725Z,55.43
2017-08-10T09:59:12.063Z,55.63
2017-08-10T10:00:12.096Z,55.76
2017-08-10T10:01:12.121Z,55.73
2017-08-10T10:02:11.842Z,55.53
2017-08-10T10:03:11.866Z,55.43
2017-08-10T10:04:12.207Z,55.76
2017-08-10T10:05:11.918Z,55.46
2017-08-10T10:06:12.265Z,55.53
2017-08-10T10:07:12.293Z,55.73
2017-08-10T10:08:12.321Z,55.66
2017-08-10T10:09:12.347Z,55.63
2017-08-10T10:10:12.060Z,55.73
2017-08-10T10:11:12.084Z,55.43
2017-08-10T10:12:12.113Z,55.46
2017-08-10T10:13:12.146Z,55.15
2017-08-10T10:14:12.479Z,55.66
2017-08-10T10:15:12.512Z,55.36
2017-08-10T10:16:12.540Z,55.56
2017-08-10T10:17:12.249Z,55.66
2017-08-10T10:18:12.594Z,55.43
2017-08-10T10:19:12.311Z,55.56
2017-08-10T10:20:12.368Z,55.46
2017-08-10T10:21:12.364Z,55.36
2017-08-10T10:22:12.709Z,55.53
2017-08-10T10:23:12.734Z,55.17
2017-08-10T10:24:12.442Z,55.43
2017-08-10T10:25:12.476Z,54.95
2017-08-10T10:26:12.840Z,55.34
2017-08-10T10:27:12.857Z,55.17
2017-08-10T10:28:12.873Z,55.36
2017-08-10T10:29:12.584Z,55.07
2017-08-10T10:30:12.927Z,55.46
2017-08-10T10:31:13.046Z,55.46
2017-08-10T10:32:12.674Z,55.36
2017-08-10T10:33:13.019Z,55.46
2017-08-10T10:34:13.038Z,55.15
2017-08-10T10:35:13.077Z,55.27
2017-08-10T10:36:12.779Z,55.27
2017-08-10T10:37:13.122Z,55.07
2017-08-10T10:38:13.155Z,55.24
2017-08-10T10:39:12.862Z,55.36
2017-08-10T10:40:12.891Z,55.46
2017-08-10T10:41:13.232Z,55.05
2017-08-10T10:42:13.264Z,55.36
2017-08-10T10:43:13.284Z,55.36
2017-08-10T10:44:13.003Z,55.27
2017-08-10T10:45:13.344Z,55.36
2017-08-10T10:46:13.376Z,55.07
2017-08-10T10:47:13.402Z,55.17
2017-08-10T10:48:13.422Z,55.15
2017-08-10T10:49:13.451Z,55.76
2017-08-10T10:50:13.171Z,55.46
2017-08-10T10:51:13.508Z,55.56
2017-08-10T10:52:13.222Z,55.76
2017-08-10T10:53:13.564Z,55.36
2017-08-10T10:54:13.591Z,55.36
2017-08-10T10:55:13.619Z,55.56
2017-08-10T10:56:13.336Z,55.66
2017-08-10T10:57:13.675Z,55.36
2017-08-10T10:58:13.387Z,55.66
2017-08-10T10:59:13.424Z,55.56
2017-08-10T11:00:14.066Z,55.56
2017-08-10T11:01:13.476Z,55.56
2017-08-10T11:02:13.812Z,55.46
2017-08-10T11:03:13.845Z,55.27
2017-08-10T11:04:13.865Z,55.17
2017-08-10T11:05:14.152Z,55.17
2017-08-10T11:06:13.607Z,55.36
2017-08-10T11:07:13.953Z,55.27
2017-08-10T11:08:13.670Z,55.17
2017-08-10T11:09:14.006Z,55.43
2017-08-10T11:10:14.336Z,55.17
2017-08-10T11:11:14.065Z,55.46
2017-08-10T11:12:14.093Z,55.27
2017-08-10T11:13:13.810Z,55.07
2017-08-10T11:14:14.140Z,54.98
2017-08-10T11:15:14.476Z,55.36
2017-08-10T11:16:14.207Z,55.36
2017-08-10T11:17:13.917Z,55.66
2017-08-10T11:18:14.257Z,55.36
2017-08-10T11:19:13.975Z,54.98
2017-08-10T11:20:14.566Z,55.36
2017-08-10T11:21:14.336Z,55.17
2017-08-10T11:22:14.373Z,55.07
2017-08-10T11:23:14.389Z,55.36
2017-08-10T11:24:14.422Z,55.07
2017-08-10T11:25:14.750Z,55.36
2017-08-10T11:26:14.174Z,55.36
2017-08-10T11:27:14.197Z,55.46
2017-08-10T11:28:14.537Z,55.27
2017-08-10T11:29:14.566Z,54.88
2017-08-10T11:30:14.847Z,55.46
2017-08-10T11:31:14.620Z,55.27
2017-08-10T11:32:14.648Z,55.46
2017-08-10T11:33:14.676Z,55.27
2017-08-10T11:34:14.698Z,54.98
2017-08-10T11:35:14.998Z,55.24
2017-08-10T11:36:14.445Z,55.05
2017-08-10T11:37:14.810Z,55.24
2017-08-10T11:38:14.810Z,55.34
2017-08-10T11:39:14.838Z,55.07
2017-08-10T11:40:15.122Z,55.46
2017-08-10T11:41:14.893Z,55.07
2017-08-10T11:42:14.933Z,55.34
2017-08-10T11:43:14.963Z,54.98
2017-08-10T11:44:14.974Z,55.27
2017-08-10T11:45:15.262Z,55.07
2017-08-10T11:46:14.793Z,55.27
2017-08-10T11:47:15.065Z,55.17
2017-08-10T11:48:14.781Z,55.46
2017-08-10T11:49:15.127Z,54.98
2017-08-10T11:50:15.401Z,55.27
2017-08-10T11:51:15.181Z,55.46
2017-08-10T11:52:15.201Z,55.34
2017-08-10T11:53:15.230Z,55.34
2017-08-10T11:54:15.258Z,55.36
2017-08-10T11:55:15.537Z,55.27
2017-08-10T11:56:15.001Z,55.24
2017-08-10T11:57:15.336Z,55.17
2017-08-10T11:58:15.370Z,55.53
2017-08-10T11:59:15.392Z,55.07
2017-08-10T12:00:15.727Z,55.07
2017-08-10T12:01:15.176Z,55.17
2017-08-10T12:02:15.482Z,55.85
2017-08-10T12:03:15.521Z,55.36
2017-08-10T12:04:15.532Z,55.46
2017-08-10T12:05:15.919Z,55.66
2017-08-10T12:06:15.596Z,55.66
2017-08-10T12:07:15.620Z,55.56
2017-08-10T12:08:15.648Z,55.27
2017-08-10T12:09:15.363Z,55.27
2017-08-10T12:10:15.695Z,55.46
2017-08-10T12:11:15.418Z,55.17
2017-08-10T12:12:15.755Z,55.66
2017-08-10T12:13:15.786Z,55.36
2017-08-10T12:14:15.817Z,55.66
2017-08-10T12:15:16.099Z,55.56
2017-08-10T12:16:15.877Z,55.27
2017-08-10T12:17:15.892Z,55.17
2017-08-10T12:18:15.622Z,55.36
2017-08-10T12:19:15.952Z,55.36
2017-08-10T12:20:16.280Z,55.27
2017-08-10T12:21:16.017Z,54.79
2017-08-10T12:22:16.037Z,55.27
2017-08-10T12:23:16.063Z,54.79
2017-08-10T12:24:16.091Z,54.79
2017-08-10T12:25:16.123Z,55.17
2017-08-10T12:26:15.841Z,55.36
2017-08-10T12:27:16.174Z,54.88
2017-08-10T12:28:16.202Z,54.79
2017-08-10T12:29:16.231Z,54.98
2017-08-10T12:30:16.258Z,55.07
2017-08-10T12:31:16.284Z,55.27
2017-08-10T12:32:16.323Z,54.98
2017-08-10T12:33:16.030Z,54.69
2017-08-10T12:34:16.097Z,54.88
2017-08-10T12:35:16.395Z,54.88
2017-08-10T12:36:16.136Z,55.07
2017-08-10T12:37:16.470Z,55.07
2017-08-10T12:38:16.493Z,55.07
2017-08-10T12:39:16.503Z,55.05
2017-08-10T12:40:16.536Z,55.07
2017-08-10T12:41:16.565Z,55.07
2017-08-10T12:42:16.286Z,54.88
2017-08-10T12:43:16.621Z,55.07
2017-08-10T12:44:16.643Z,54.88
2017-08-10T12:45:16.699Z,55.07
2017-08-10T12:46:16.704Z,54.88
2017-08-10T12:47:16.736Z,54.69
2017-08-10T12:48:16.447Z,54.98
2017-08-10T12:49:16.782Z,54.88
2017-08-10T12:50:16.501Z,54.95
2017-08-10T12:51:16.839Z,54.69
2017-08-10T12:52:16.871Z,54.98
2017-08-10T12:53:16.899Z,54.98
2017-08-10T12:54:16.912Z,54.66
2017-08-10T12:55:16.952Z,54.88
2017-08-10T12:56:16.986Z,54.69
2017-08-10T12:57:17.010Z,54.88
2017-08-10T12:58:17.046Z,54.66
2017-08-10T12:59:17.066Z,54.79